No.3tokuyomaru — JD3132 — position and weather

sailwx.info

Track history (hours):
 
Tides and Currents Weather Stations Pressure Air Temp Water Temp Dewpoint Dewpoint Depression Visibility Wind Speed Wind Dir Waves Ship Positions

No.3tokuyomaru

Last reported at 2015-Aug-01 07:22 UTC. Time now 2015-Aug-01 11:50 UTC.
Position N 35°31' E 140°47'.

Length 67 m; draft 4.6 m.

Type: Tanker. MMSI: 431002151.

Date/timePositionNaut miles runAvg speedWind from/ knotsBaromVisibWave heightAir tempDewpointWater temp
2015-Aug-01 07:22N 35°31' E 140°47'23 2.9
2015-Jul-31 23:19N 35°54' E 140°41'5 6.2
2015-Jul-31 22:33N 35°58' E 140°43'0 0.4
2015-Jul-31 21:24N 35°58' E 140°44'0 0.0
2015-Jul-31 20:26N 35°58' E 140°44'5 5.6
2015-Jul-31 19:33N 35°54' E 140°47'3310.8
2015-Jul-31 16:32N 35°22' E 140°39'2912.7
2015-Jul-31 14:17N 35°02' E 140°14'1013.3
2015-Jul-31 13:33N 34°57' E 140°05'18 8.9
2015-Jul-31 11:33N 35°02' E 139°44'1312.8
2015-Jul-31 10:33N 35°14' E 139°46'1111.3
2015-Jul-31 09:34N 35°26' E 139°45'1211.9
2015-Jul-31 08:33N 35°31' E 139°58'4 3.8
2015-Jul-31 07:33N 35°31' E 140°03'0 0.0
2015-Jul-31 06:33N 35°31' E 140°03'0 0.0
2015-Jul-31 05:33N 35°31' E 140°03'0 0.0
2015-Jul-31 04:34N 35°31' E 140°03'0 0.0
2015-Jul-31 03:34N 35°31' E 140°03'1 0.9
2015-Jul-31 02:33N 35°31' E 140°02'6 5.6
2015-Jul-31 01:34N 35°28' E 139°56'0 0.0
2015-Jul-31 00:34N 35°28' E 139°56'0 0.0
2015-Jul-30 23:33N 35°28' E 139°56'0 0.0
2015-Jul-30 22:33N 35°28' E 139°56'0 0.0
2015-Jul-30 21:33N 35°28' E 139°56'0 0.0
2015-Jul-30 20:33N 35°28' E 139°56'0 0.0
2015-Jul-30 19:33N 35°28' E 139°56'0 0.0
2015-Jul-30 18:33N 35°28' E 139°56'0 0.0
2015-Jul-30 17:33N 35°28' E 139°56'0 0.0
2015-Jul-30 16:33N 35°28' E 139°56'1 1.2
2015-Jul-30 15:34N 35°28' E 139°54'1212.2
2015-Jul-30 14:33N 35°19' E 139°44'1212.1
2015-Jul-30 13:33N 35°07' E 139°45'1211.7
2015-Jul-30 12:33N 34°55' E 139°45'4511.1
2015-Jul-30 08:29N 35°17' E 140°33'1212.9
2015-Jul-30 07:33N 35°26' E 140°42'1513.3
2015-Jul-30 06:24N 35°39' E 140°54'17 2.0
2015-Jul-29 22:14N 35°54' E 140°47'811.9
2015-Jul-29 21:33N 35°48' E 140°53'1110.5
2015-Jul-29 20:33N 35°37' E 140°52'1412.2
2015-Jul-29 19:25N 35°26' E 140°42'1412.6
2015-Jul-29 18:21N 35°15' E 140°32'2212.4
2015-Jul-29 16:33N 35°01' E 140°12'1413.1
2015-Jul-29 15:30N 34°53' E 139°58'1110.9
2015-Jul-29 14:29N 34°56' E 139°45'1212.9
2015-Jul-29 13:33N 35°08' E 139°45'1312.6
2015-Jul-29 12:33N 35°20' E 139°43'1110.7
2015-Jul-29 11:33N 35°30' E 139°46'1 0.9
2015-Jul-29 10:33N 35°30' E 139°45'0 0.0
2015-Jul-29 09:33N 35°30' E 139°45'0 0.0
2015-Jul-29 08:33N 35°30' E 139°45'0 0.0
2015-Jul-29 07:33N 35°30' E 139°45'0 0.0
2015-Jul-29 06:33N 35°30' E 139°45'1 1.4
2015-Jul-29 05:33N 35°30' E 139°46'3 2.5
2015-Jul-29 04:33N 35°29' E 139°49'0 0.0
2015-Jul-29 03:33N 35°29' E 139°49'0 0.0
2015-Jul-29 02:33N 35°29' E 139°49'0 0.0
2015-Jul-29 01:33N 35°29' E 139°49'0 0.0
2015-Jul-29 00:33N 35°29' E 139°49'0 0.0
2015-Jul-28 23:33N 35°29' E 139°49'0 0.0
2015-Jul-28 22:33N 35°29' E 139°49'0 0.0
2015-Jul-28 21:33N 35°29' E 139°49'0 0.0
2015-Jul-28 20:33N 35°29' E 139°49'0 0.0
2015-Jul-28 19:33N 35°29' E 139°49'0 0.0
2015-Jul-28 18:33N 35°29' E 139°49'0 0.0
2015-Jul-28 17:33N 35°29' E 139°49'0 0.0
2015-Jul-28 16:33N 35°29' E 139°49'5 5.5
2015-Jul-28 15:33N 35°24' E 139°46'1111.5
2015-Jul-28 14:33N 35°12' E 139°47'1312.5
2015-Jul-28 13:32N 34°60' E 139°43'71 5.0
2015-Jul-27 23:17N 35°54' E 140°41'5 6.3
2015-Jul-27 22:33N 35°58' E 140°44'0 0.0
2015-Jul-27 21:33N 35°58' E 140°44'0 0.0
2015-Jul-27 20:33N 35°58' E 140°44'0 0.0
2015-Jul-27 19:33N 35°58' E 140°44'66 9.4
2015-Jul-27 12:32N 34°58' E 140°08'20 9.3
2015-Jul-27 10:23N 35°01' E 139°44'1012.4
2015-Jul-27 09:33N 35°11' E 139°46'1212.5
2015-Jul-27 08:33N 35°23' E 139°42'8 7.7
2015-Jul-27 07:34N 35°30' E 139°45'0 0.0
2015-Jul-27 06:34N 35°30' E 139°45'0 0.0
2015-Jul-27 05:34N 35°30' E 139°45'0 0.0
2015-Jul-27 04:33N 35°30' E 139°45'0 0.0
2015-Jul-27 03:34N 35°30' E 139°45'0 0.0
2015-Jul-27 02:34N 35°30' E 139°45'4 3.9
2015-Jul-27 01:33N 35°29' E 139°49'0 0.0
2015-Jul-27 00:34N 35°29' E 139°49'0 0.0
2015-Jul-26 23:34N 35°29' E 139°49'0 0.0
2015-Jul-26 22:33N 35°29' E 139°49'0 0.0
2015-Jul-26 21:34N 35°29' E 139°49'0 0.1
2015-Jul-26 20:34N 35°29' E 139°49'1110.9
2015-Jul-26 19:33N 35°19' E 139°44'1111.2
2015-Jul-26 18:33N 35°08' E 139°46'1212.1
2015-Jul-26 17:33N 34°56' E 139°45'1110.3
2015-Jul-26 16:31N 34°52' E 139°57'1312.9
2015-Jul-26 15:33N 34°60' E 140°10'1313.0
2015-Jul-26 14:32N 35°07' E 140°23'1312.1
2015-Jul-26 13:27N 35°17' E 140°34'1213.0
2015-Jul-26 12:33N 35°26' E 140°42'1312.8
2015-Jul-26 11:33N 35°36' E 140°52'1111.1
2015-Jul-26 10:33N 35°47' E 140°53'1312.6
2015-Jul-26 09:32N 35°57' E 140°43'4 0.4
2015-Jul-25 23:19N 35°54' E 140°41'3 3.1
2015-Jul-25 22:19N 35°57' E 140°42'0 0.0
2015-Jul-25 21:18N 35°57' E 140°42'0 0.0
2015-Jul-25 20:27N 35°57' E 140°42'0 0.0
2015-Jul-25 19:32N 35°57' E 140°42'0 0.0
2015-Jul-25 18:33N 35°57' E 140°42'0 0.0
2015-Jul-25 17:31N 35°57' E 140°42'4 4.3
2015-Jul-25 16:32N 35°54' E 140°46'1412.6
2015-Jul-25 15:24N 35°42' E 140°55'1312.4
2015-Jul-25 14:21N 35°31' E 140°47'4012.5
2015-Jul-25 11:07N 35°01' E 140°13'712.2
2015-Jul-25 10:32N 34°57' E 140°06'1612.0
2015-Jul-25 09:09N 34°54' E 139°46'813.3
2015-Jul-25 08:33N 35°01' E 139°43'1312.7
2015-Jul-25 07:33N 35°14' E 139°47'1111.5
2015-Jul-25 06:33N 35°25' E 139°45'1312.5
2015-Jul-25 05:33N 35°32' E 139°58'4 4.2
2015-Jul-25 04:33N 35°31' E 140°03'0 0.0
2015-Jul-25 03:33N 35°31' E 140°03'0 0.0
2015-Jul-25 02:33N 35°31' E 140°03'0 0.0
2015-Jul-25 01:33N 35°31' E 140°03'0 0.0
2015-Jul-25 00:33N 35°31' E 140°03'0 0.0
2015-Jul-24 23:33N 35°31' E 140°03'6 5.9
2015-Jul-24 22:33N 35°28' E 139°56'0 0.0
2015-Jul-24 21:33N 35°28' E 139°56'0 0.0
2015-Jul-24 20:33N 35°28' E 139°56'0 0.1
2015-Jul-24 19:33N 35°28' E 139°56'0 0.1
2015-Jul-24 18:33N 35°28' E 139°56'0 0.0
2015-Jul-24 17:33N 35°28' E 139°56'2 2.3
2015-Jul-24 16:33N 35°29' E 139°53'1211.6
2015-Jul-24 15:33N 35°19' E 139°44'1211.6
2015-Jul-24 14:33N 35°08' E 139°46'49 8.2
2015-Jul-24 08:33N 35°26' E 140°42'1412.7
2015-Jul-24 07:28N 35°37' E 140°52'19 2.3
2015-Jul-23 23:09N 35°54' E 140°41'3 5.1
2015-Jul-23 22:29N 35°57' E 140°42'0 0.1
2015-Jul-23 21:33N 35°57' E 140°42'0 0.0
2015-Jul-23 20:32N 35°57' E 140°42'0 0.1
2015-Jul-23 19:33N 35°57' E 140°42'0 0.0
2015-Jul-23 18:33N 35°57' E 140°42'0 0.0
2015-Jul-23 17:33N 35°57' E 140°42'0 0.0
2015-Jul-23 16:27N 35°57' E 140°42'0 0.0
2015-Jul-23 15:33N 35°57' E 140°42'0 0.0
2015-Jul-23 14:33N 35°57' E 140°42'0 0.0
2015-Jul-23 13:30N 35°57' E 140°42'0 0.0
2015-Jul-23 12:32N 35°57' E 140°42'62 5.2
2015-Jul-23 00:33N 35°00' E 140°11'2512.6
2015-Jul-22 22:33N 34°51' E 139°42'  
Track history (hours):
 
Tides and Currents Weather Stations Pressure Air Temp Water Temp Dewpoint Dewpoint Depression Visibility Wind Speed Wind Dir Waves Ship Positions

No.3tokuyomaru

Last reported at 2015-Aug-01 07:22 UTC. Time now 2015-Aug-01 11:50 UTC.
Position N 35°31' E 140°47'.

Length 67 m; draft 4.6 m.

Type: Tanker. MMSI: 431002151.

Date/timePositionNaut miles runAvg speedWind from/ knotsBaromVisibWave heightAir tempDewpointWater temp
2015-Aug-01 07:22N 35°31' E 140°47'23 2.9
2015-Jul-31 23:19N 35°54' E 140°41'5 6.2
2015-Jul-31 22:33N 35°58' E 140°43'0 0.4
2015-Jul-31 21:24N 35°58' E 140°44'0 0.0
2015-Jul-31 20:26N 35°58' E 140°44'5 5.6
2015-Jul-31 19:33N 35°54' E 140°47'3310.8
2015-Jul-31 16:32N 35°22' E 140°39'2912.7
2015-Jul-31 14:17N 35°02' E 140°14'1013.3
2015-Jul-31 13:33N 34°57' E 140°05'18 8.9
2015-Jul-31 11:33N 35°02' E 139°44'1312.8
2015-Jul-31 10:33N 35°14' E 139°46'1111.3
2015-Jul-31 09:34N 35°26' E 139°45'1211.9
2015-Jul-31 08:33N 35°31' E 139°58'4 3.8
2015-Jul-31 07:33N 35°31' E 140°03'0 0.0
2015-Jul-31 06:33N 35°31' E 140°03'0 0.0
2015-Jul-31 05:33N 35°31' E 140°03'0 0.0
2015-Jul-31 04:34N 35°31' E 140°03'0 0.0
2015-Jul-31 03:34N 35°31' E 140°03'1 0.9
2015-Jul-31 02:33N 35°31' E 140°02'6 5.6
2015-Jul-31 01:34N 35°28' E 139°56'0 0.0
2015-Jul-31 00:34N 35°28' E 139°56'0 0.0
2015-Jul-30 23:33N 35°28' E 139°56'0 0.0
2015-Jul-30 22:33N 35°28' E 139°56'0 0.0
2015-Jul-30 21:33N 35°28' E 139°56'0 0.0
2015-Jul-30 20:33N 35°28' E 139°56'0 0.0
2015-Jul-30 19:33N 35°28' E 139°56'0 0.0
2015-Jul-30 18:33N 35°28' E 139°56'0 0.0
2015-Jul-30 17:33N 35°28' E 139°56'0 0.0
2015-Jul-30 16:33N 35°28' E 139°56'1 1.2
2015-Jul-30 15:34N 35°28' E 139°54'1212.2
2015-Jul-30 14:33N 35°19' E 139°44'1212.1
2015-Jul-30 13:33N 35°07' E 139°45'1211.7
2015-Jul-30 12:33N 34°55' E 139°45'4511.1
2015-Jul-30 08:29N 35°17' E 140°33'1212.9
2015-Jul-30 07:33N 35°26' E 140°42'1513.3
2015-Jul-30 06:24N 35°39' E 140°54'17 2.0
2015-Jul-29 22:14N 35°54' E 140°47'811.9
2015-Jul-29 21:33N 35°48' E 140°53'1110.5
2015-Jul-29 20:33N 35°37' E 140°52'1412.2
2015-Jul-29 19:25N 35°26' E 140°42'1412.6
2015-Jul-29 18:21N 35°15' E 140°32'2212.4
2015-Jul-29 16:33N 35°01' E 140°12'1413.1
2015-Jul-29 15:30N 34°53' E 139°58'1110.9
2015-Jul-29 14:29N 34°56' E 139°45'1212.9
2015-Jul-29 13:33N 35°08' E 139°45'1312.6
2015-Jul-29 12:33N 35°20' E 139°43'1110.7
2015-Jul-29 11:33N 35°30' E 139°46'1 0.9
2015-Jul-29 10:33N 35°30' E 139°45'0 0.0
2015-Jul-29 09:33N 35°30' E 139°45'0 0.0
2015-Jul-29 08:33N 35°30' E 139°45'0 0.0
2015-Jul-29 07:33N 35°30' E 139°45'0 0.0
2015-Jul-29 06:33N 35°30' E 139°45'1 1.4
2015-Jul-29 05:33N 35°30' E 139°46'3 2.5
2015-Jul-29 04:33N 35°29' E 139°49'0 0.0
2015-Jul-29 03:33N 35°29' E 139°49'0 0.0
2015-Jul-29 02:33N 35°29' E 139°49'0 0.0
2015-Jul-29 01:33N 35°29' E 139°49'0 0.0
2015-Jul-29 00:33N 35°29' E 139°49'0 0.0
2015-Jul-28 23:33N 35°29' E 139°49'0 0.0
2015-Jul-28 22:33N 35°29' E 139°49'0 0.0
2015-Jul-28 21:33N 35°29' E 139°49'0 0.0
2015-Jul-28 20:33N 35°29' E 139°49'0 0.0
2015-Jul-28 19:33N 35°29' E 139°49'0 0.0
2015-Jul-28 18:33N 35°29' E 139°49'0 0.0
2015-Jul-28 17:33N 35°29' E 139°49'0 0.0
2015-Jul-28 16:33N 35°29' E 139°49'5 5.5
2015-Jul-28 15:33N 35°24' E 139°46'1111.5
2015-Jul-28 14:33N 35°12' E 139°47'1312.5
2015-Jul-28 13:32N 34°60' E 139°43'71 5.0
2015-Jul-27 23:17N 35°54' E 140°41'5 6.3
2015-Jul-27 22:33N 35°58' E 140°44'0 0.0
2015-Jul-27 21:33N 35°58' E 140°44'0 0.0
2015-Jul-27 20:33N 35°58' E 140°44'0 0.0
2015-Jul-27 19:33N 35°58' E 140°44'66 9.4
2015-Jul-27 12:32N 34°58' E 140°08'20 9.3
2015-Jul-27 10:23N 35°01' E 139°44'1012.4
2015-Jul-27 09:33N 35°11' E 139°46'1212.5
2015-Jul-27 08:33N 35°23' E 139°42'8 7.7
2015-Jul-27 07:34N 35°30' E 139°45'0 0.0
2015-Jul-27 06:34N 35°30' E 139°45'0 0.0
2015-Jul-27 05:34N 35°30' E 139°45'0 0.0
2015-Jul-27 04:33N 35°30' E 139°45'0 0.0
2015-Jul-27 03:34N 35°30' E 139°45'0 0.0
2015-Jul-27 02:34N 35°30' E 139°45'4 3.9
2015-Jul-27 01:33N 35°29' E 139°49'0 0.0
2015-Jul-27 00:34N 35°29' E 139°49'0 0.0
2015-Jul-26 23:34N 35°29' E 139°49'0 0.0
2015-Jul-26 22:33N 35°29' E 139°49'0 0.0
2015-Jul-26 21:34N 35°29' E 139°49'0 0.1
2015-Jul-26 20:34N 35°29' E 139°49'1110.9
2015-Jul-26 19:33N 35°19' E 139°44'1111.2
2015-Jul-26 18:33N 35°08' E 139°46'1212.1
2015-Jul-26 17:33N 34°56' E 139°45'1110.3
2015-Jul-26 16:31N 34°52' E 139°57'1312.9
2015-Jul-26 15:33N 34°60' E 140°10'1313.0
2015-Jul-26 14:32N 35°07' E 140°23'1312.1
2015-Jul-26 13:27N 35°17' E 140°34'1213.0
2015-Jul-26 12:33N 35°26' E 140°42'1312.8
2015-Jul-26 11:33N 35°36' E 140°52'1111.1
2015-Jul-26 10:33N 35°47' E 140°53'1312.6
2015-Jul-26 09:32N 35°57' E 140°43'4 0.4
2015-Jul-25 23:19N 35°54' E 140°41'3 3.1
2015-Jul-25 22:19N 35°57' E 140°42'0 0.0
2015-Jul-25 21:18N 35°57' E 140°42'0 0.0
2015-Jul-25 20:27N 35°57' E 140°42'0 0.0
2015-Jul-25 19:32N 35°57' E 140°42'0 0.0
2015-Jul-25 18:33N 35°57' E 140°42'0 0.0
2015-Jul-25 17:31N 35°57' E 140°42'4 4.3
2015-Jul-25 16:32N 35°54' E 140°46'1412.6
2015-Jul-25 15:24N 35°42' E 140°55'1312.4
2015-Jul-25 14:21N 35°31' E 140°47'4012.5
2015-Jul-25 11:07N 35°01' E 140°13'712.2
2015-Jul-25 10:32N 34°57' E 140°06'1612.0
2015-Jul-25 09:09N 34°54' E 139°46'813.3
2015-Jul-25 08:33N 35°01' E 139°43'1312.7
2015-Jul-25 07:33N 35°14' E 139°47'1111.5
2015-Jul-25 06:33N 35°25' E 139°45'1312.5
2015-Jul-25 05:33N 35°32' E 139°58'4 4.2
2015-Jul-25 04:33N 35°31' E 140°03'0 0.0
2015-Jul-25 03:33N 35°31' E 140°03'0 0.0
2015-Jul-25 02:33N 35°31' E 140°03'0 0.0
2015-Jul-25 01:33N 35°31' E 140°03'0 0.0
2015-Jul-25 00:33N 35°31' E 140°03'0 0.0
2015-Jul-24 23:33N 35°31' E 140°03'6 5.9
2015-Jul-24 22:33N 35°28' E 139°56'0 0.0
2015-Jul-24 21:33N 35°28' E 139°56'0 0.0
2015-Jul-24 20:33N 35°28' E 139°56'0 0.1
2015-Jul-24 19:33N 35°28' E 139°56'0 0.1
2015-Jul-24 18:33N 35°28' E 139°56'0 0.0
2015-Jul-24 17:33N 35°28' E 139°56'2 2.3
2015-Jul-24 16:33N 35°29' E 139°53'1211.6
2015-Jul-24 15:33N 35°19' E 139°44'1211.6
2015-Jul-24 14:33N 35°08' E 139°46'49 8.2
2015-Jul-24 08:33N 35°26' E 140°42'1412.7
2015-Jul-24 07:28N 35°37' E 140°52'19 2.3
2015-Jul-23 23:09N 35°54' E 140°41'3 5.1
2015-Jul-23 22:29N 35°57' E 140°42'0 0.1
2015-Jul-23 21:33N 35°57' E 140°42'0 0.0
2015-Jul-23 20:32N 35°57' E 140°42'0 0.1
2015-Jul-23 19:33N 35°57' E 140°42'0 0.0
2015-Jul-23 18:33N 35°57' E 140°42'0 0.0
2015-Jul-23 17:33N 35°57' E 140°42'0 0.0
2015-Jul-23 16:27N 35°57' E 140°42'0 0.0
2015-Jul-23 15:33N 35°57' E 140°42'0 0.0
2015-Jul-23 14:33N 35°57' E 140°42'0 0.0
2015-Jul-23 13:30N 35°57' E 140°42'0 0.0
2015-Jul-23 12:32N 35°57' E 140°42'62 5.2
2015-Jul-23 00:33N 35°00' E 140°11'2512.6
2015-Jul-22 22:33N 34°51' E 139°42'  

Dump ship's entire track history